createdAt,value
2023-05-15T00:00:03.141Z,0
2023-05-15T00:01:12.291Z,0
2023-05-15T00:02:21.446Z,0
2023-05-15T00:03:30.702Z,0
2023-05-15T00:04:39.800Z,0
2023-05-15T00:05:48.956Z,0
2023-05-15T00:06:58.243Z,0
2023-05-15T00:08:07.344Z,0
2023-05-15T00:09:16.513Z,0
2023-05-15T00:10:25.674Z,0
2023-05-15T00:11:34.830Z,0
2023-05-15T00:12:44.018Z,0
2023-05-15T00:13:53.177Z,0
2023-05-15T00:15:01.389Z,0
2023-05-15T00:16:10.560Z,0
2023-05-15T00:17:19.781Z,0
2023-05-15T00:18:28.878Z,0
2023-05-15T00:19:38.064Z,0
2023-05-15T00:20:47.230Z,0
2023-05-15T00:21:55.428Z,0
2023-05-15T00:23:03.615Z,0
2023-05-15T00:24:12.775Z,0
2023-05-15T00:25:21.959Z,0
2023-05-15T00:26:31.225Z,0
2023-05-15T00:27:40.302Z,0
2023-05-15T00:28:49.490Z,0
2023-05-15T00:29:58.715Z,0
2023-05-15T00:31:07.824Z,0
2023-05-15T00:32:17.028Z,0
2023-05-15T00:33:26.171Z,0
2023-05-15T00:35:44.515Z,0
2023-05-15T00:36:53.768Z,0
2023-05-15T00:38:01.955Z,0
2023-05-15T00:39:11.105Z,0
2023-05-15T00:40:20.217Z,0
2023-05-15T00:41:29.410Z,0
2023-05-15T00:42:38.621Z,0
2023-05-15T00:43:47.760Z,0
2023-05-15T00:44:56.915Z,0
2023-05-15T00:46:06.092Z,0
2023-05-15T00:47:15.291Z,0
2023-05-15T00:48:24.443Z,0
2023-05-15T00:49:33.695Z,0
2023-05-15T00:50:42.780Z,0
2023-05-15T00:51:51.962Z,0
2023-05-15T00:53:00.180Z,0
2023-05-15T00:54:09.313Z,0
2023-05-15T00:55:18.618Z,0
2023-05-15T00:56:27.758Z,0
2023-05-15T00:57:36.824Z,0
2023-05-15T00:59:55.179Z,0
2023-05-15T01:01:04.352Z,0
2023-05-15T01:03:22.719Z,0
2023-05-15T01:04:30.902Z,0
2023-05-15T01:05:39.165Z,0
2023-05-15T01:06:47.320Z,0
2023-05-15T01:07:56.546Z,0
2023-05-15T01:09:05.620Z,0
2023-05-15T01:10:14.815Z,0
2023-05-15T01:11:23.978Z,0
2023-05-15T01:12:33.216Z,0
2023-05-15T01:13:42.304Z,0
2023-05-15T01:14:51.548Z,0
2023-05-15T01:16:00.801Z,0
2023-05-15T01:17:09.821Z,0
2023-05-15T01:18:19.030Z,0
2023-05-15T01:19:28.164Z,0
2023-05-15T01:20:37.351Z,0
2023-05-15T01:21:45.538Z,0
2023-05-15T01:22:54.704Z,0
2023-05-15T01:24:03.891Z,0
2023-05-15T01:25:13.231Z,0
2023-05-15T01:26:22.349Z,0
2023-05-15T01:27:31.405Z,0
2023-05-15T01:28:39.664Z,0
2023-05-15T01:29:47.794Z,0
2023-05-15T01:30:57.001Z,0
2023-05-15T01:32:06.143Z,0
2023-05-15T01:33:15.291Z,0
2023-05-15T01:34:24.484Z,0
2023-05-15T01:35:33.699Z,0
2023-05-15T01:36:42.857Z,0
2023-05-15T01:37:51.991Z,0
2023-05-15T01:39:01.294Z,0
2023-05-15T01:40:10.415Z,0
2023-05-15T01:41:19.545Z,0
2023-05-15T01:42:28.694Z,0
2023-05-15T01:43:37.859Z,0
2023-05-15T01:44:46.073Z,0
2023-05-15T01:45:55.296Z,0
2023-05-15T01:47:04.425Z,0
2023-05-15T01:48:13.563Z,0
2023-05-15T01:49:22.726Z,0
2023-05-15T01:50:31.900Z,0
2023-05-15T01:51:41.076Z,0
2023-05-15T01:52:50.306Z,0
2023-05-15T01:53:59.481Z,0
2023-05-15T01:55:08.678Z,0
2023-05-15T01:56:17.858Z,0
2023-05-15T01:57:27.039Z,0
2023-05-15T01:58:36.114Z,0
2023-05-15T01:59:44.300Z,0
2023-05-15T02:00:53.467Z,0
2023-05-15T02:02:02.641Z,0
2023-05-15T02:03:11.828Z,0
2023-05-15T02:04:20.016Z,0
2023-05-15T02:05:28.210Z,0
2023-05-15T02:06:36.498Z,0
2023-05-15T02:07:45.575Z,0
2023-05-15T02:08:54.767Z,0
2023-05-15T02:10:04.036Z,0
2023-05-15T02:11:13.108Z,0
2023-05-15T02:12:22.270Z,0
2023-05-15T02:13:31.455Z,0
2023-05-15T02:14:40.637Z,0
2023-05-15T02:15:49.773Z,0
2023-05-15T02:16:59.004Z,0
2023-05-15T02:18:08.122Z,0
2023-05-15T02:19:17.292Z,0
2023-05-15T02:20:26.521Z,0
2023-05-15T02:21:34.679Z,0
2023-05-15T02:22:43.876Z,0
2023-05-15T02:23:52.996Z,0
2023-05-15T02:25:02.172Z,0
2023-05-15T02:26:11.355Z,0
2023-05-15T02:27:20.592Z,0
2023-05-15T02:28:29.773Z,0
2023-05-15T02:29:38.883Z,0
2023-05-15T02:30:48.042Z,0
2023-05-15T02:31:57.265Z,0
2023-05-15T02:34:14.575Z,0
2023-05-15T02:35:22.773Z,0
2023-05-15T02:36:30.968Z,0
2023-05-15T02:37:40.191Z,0
2023-05-15T02:38:49.319Z,0
2023-05-15T02:39:58.499Z,0
2023-05-15T02:41:07.646Z,0
2023-05-15T02:42:16.841Z,0
2023-05-15T02:43:26.102Z,0
2023-05-15T02:44:35.223Z,0
2023-05-15T02:45:44.345Z,0
2023-05-15T02:46:53.534Z,0
2023-05-15T02:48:02.704Z,0
2023-05-15T02:49:11.969Z,0
2023-05-15T02:50:21.034Z,0
2023-05-15T02:51:29.235Z,0
2023-05-15T02:52:38.401Z,0
2023-05-15T02:53:47.578Z,0
2023-05-15T02:54:56.770Z,0
2023-05-15T02:56:04.953Z,0
2023-05-15T02:57:14.147Z,0
2023-05-15T02:58:23.302Z,0
2023-05-15T03:00:41.645Z,0
2023-05-15T03:01:50.796Z,0
2023-05-15T03:02:59.975Z,0
2023-05-15T03:04:09.140Z,0
2023-05-15T03:05:18.303Z,0
2023-05-15T03:06:27.617Z,0
2023-05-15T03:07:36.663Z,0
2023-05-15T03:08:45.840Z,0
2023-05-15T03:09:55.005Z,0
2023-05-15T03:11:04.289Z,0
2023-05-15T03:12:12.398Z,0
2023-05-15T03:13:21.544Z,0
2023-05-15T03:14:30.751Z,0
2023-05-15T03:15:39.980Z,0
2023-05-15T03:16:49.058Z,0
2023-05-15T03:17:58.253Z,0
2023-05-15T03:19:07.398Z,0
2023-05-15T03:20:16.580Z,0
2023-05-15T03:21:25.746Z,0
2023-05-15T03:22:34.947Z,0
2023-05-15T03:23:44.119Z,0
2023-05-15T03:24:53.272Z,0
2023-05-15T03:26:02.525Z,0
2023-05-15T03:27:10.635Z,0
2023-05-15T03:28:19.816Z,0
2023-05-15T03:29:28.987Z,0
2023-05-15T03:30:38.179Z,0
2023-05-15T03:31:47.367Z,0
2023-05-15T03:32:56.502Z,0
2023-05-15T03:34:05.668Z,0
2023-05-15T03:35:14.840Z,0
2023-05-15T03:36:24.032Z,0
2023-05-15T03:37:33.191Z,0
2023-05-15T03:38:42.401Z,5
2023-05-15T03:39:51.526Z,5
2023-05-15T03:41:00.767Z,5
2023-05-15T03:42:08.966Z,5
2023-05-15T03:43:18.101Z,5
2023-05-15T03:44:27.263Z,5
2023-05-15T03:45:36.495Z,5
2023-05-15T03:46:45.614Z,5
2023-05-15T03:47:54.783Z,11
2023-05-15T03:50:13.187Z,11
2023-05-15T03:52:31.513Z,11
2023-05-15T03:53:40.630Z,11
2023-05-15T03:54:49.848Z,11
2023-05-15T03:55:59.136Z,16
2023-05-15T03:57:08.310Z,16
2023-05-15T03:58:16.412Z,16
2023-05-15T03:59:25.650Z,16
2023-05-15T04:00:34.874Z,16
2023-05-15T04:01:43.981Z,16
2023-05-15T04:02:53.197Z,22
2023-05-15T04:04:02.278Z,22
2023-05-15T04:05:11.485Z,22
2023-05-15T04:06:20.660Z,22
2023-05-15T04:07:29.812Z,22
2023-05-15T04:08:38.985Z,22
2023-05-15T04:10:57.379Z,22
2023-05-15T04:12:05.561Z,28
2023-05-15T04:13:14.781Z,28
2023-05-15T04:14:22.980Z,28
2023-05-15T04:15:32.193Z,28
2023-05-15T04:16:41.285Z,28
2023-05-15T04:17:50.363Z,33
2023-05-15T04:18:59.540Z,33
2023-05-15T04:20:08.859Z,33
2023-05-15T04:21:17.952Z,33
2023-05-15T04:22:27.141Z,33
2023-05-15T04:23:35.306Z,33
2023-05-15T04:24:43.438Z,33
2023-05-15T04:25:52.701Z,33
2023-05-15T04:28:11.037Z,39
2023-05-15T04:29:20.060Z,33
2023-05-15T04:30:29.336Z,33
2023-05-15T04:31:38.574Z,33
2023-05-15T04:32:47.738Z,33
2023-05-15T04:33:56.913Z,33
2023-05-15T04:35:05.926Z,33
2023-05-15T04:36:15.200Z,33
2023-05-15T04:37:24.269Z,33
2023-05-15T04:38:33.582Z,28
2023-05-15T04:39:41.825Z,28
2023-05-15T04:40:50.838Z,28
2023-05-15T04:42:00.049Z,28
2023-05-15T04:43:09.154Z,28
2023-05-15T04:44:18.345Z,28
2023-05-15T04:45:27.638Z,28
2023-05-15T04:46:36.823Z,28
2023-05-15T04:47:46.008Z,28
2023-05-15T04:48:55.166Z,28
2023-05-15T04:50:04.363Z,28
2023-05-15T04:51:13.521Z,28
2023-05-15T04:52:22.595Z,28
2023-05-15T04:53:31.789Z,28
2023-05-15T04:54:39.897Z,28
2023-05-15T04:55:49.182Z,28
2023-05-15T04:56:58.442Z,33
2023-05-15T04:58:07.512Z,33
2023-05-15T04:59:16.703Z,33
2023-05-15T05:00:25.887Z,33
2023-05-15T05:01:35.045Z,28
2023-05-15T05:02:44.246Z,28
2023-05-15T05:03:53.378Z,33
2023-05-15T05:05:02.536Z,33
2023-05-15T05:06:11.816Z,33
2023-05-15T05:07:20.822Z,39
2023-05-15T05:08:30.080Z,45
2023-05-15T05:09:38.173Z,50
2023-05-15T05:10:47.343Z,50
2023-05-15T05:11:56.493Z,56
2023-05-15T05:13:05.724Z,56
2023-05-15T05:14:14.868Z,56
2023-05-15T05:15:24.167Z,61
2023-05-15T05:16:33.262Z,56
2023-05-15T05:17:42.367Z,61
2023-05-15T05:18:51.532Z,61
2023-05-15T05:20:00.829Z,61
2023-05-15T05:21:09.894Z,61
2023-05-15T05:23:28.254Z,67
2023-05-15T05:24:36.455Z,67
2023-05-15T05:25:45.777Z,67
2023-05-15T05:26:54.854Z,67
2023-05-15T05:29:13.275Z,73
2023-05-15T05:30:22.512Z,73
2023-05-15T05:31:31.554Z,78
2023-05-15T05:32:40.650Z,73
2023-05-15T05:33:49.826Z,78
2023-05-15T05:34:59.076Z,78
2023-05-15T05:36:08.199Z,78
2023-05-15T05:37:17.315Z,78
2023-05-15T05:38:26.627Z,78
2023-05-15T05:39:34.840Z,78
2023-05-15T05:40:43.954Z,73
2023-05-15T05:41:53.109Z,73
2023-05-15T05:43:02.346Z,61
2023-05-15T05:44:11.369Z,61
2023-05-15T05:45:20.576Z,61
2023-05-15T05:46:29.753Z,61
2023-05-15T05:47:39.029Z,67
2023-05-15T05:48:48.098Z,67
2023-05-15T05:49:57.345Z,67
2023-05-15T05:51:06.468Z,73
2023-05-15T05:52:15.573Z,73
2023-05-15T05:53:24.932Z,78
2023-05-15T05:54:33.067Z,78
2023-05-15T05:55:42.250Z,90
2023-05-15T05:56:51.320Z,101
2023-05-15T05:58:00.572Z,95
2023-05-15T05:59:09.659Z,101
2023-05-15T06:00:18.889Z,95
2023-05-15T06:01:27.961Z,95
2023-05-15T06:02:37.204Z,90
2023-05-15T06:03:46.338Z,90
2023-05-15T06:04:55.617Z,101
2023-05-15T06:06:04.764Z,101
2023-05-15T06:07:13.840Z,101
2023-05-15T06:08:23.011Z,101
2023-05-15T06:09:31.275Z,95
2023-05-15T06:11:49.597Z,106
2023-05-15T06:12:58.745Z,106
2023-05-15T06:14:07.877Z,118
2023-05-15T06:15:17.199Z,123
2023-05-15T06:16:26.226Z,118
2023-05-15T06:17:35.400Z,118
2023-05-15T06:18:44.769Z,112
2023-05-15T06:19:53.851Z,118
2023-05-15T06:21:02.919Z,118
2023-05-15T06:22:12.102Z,112
2023-05-15T06:23:21.300Z,112
2023-05-15T06:24:29.558Z,112
2023-05-15T06:25:38.695Z,106
2023-05-15T06:26:47.805Z,106
2023-05-15T06:27:57.027Z,106
2023-05-15T06:29:06.211Z,106
2023-05-15T06:30:15.379Z,95
2023-05-15T06:31:24.575Z,95
2023-05-15T06:32:33.687Z,101
2023-05-15T06:33:43.007Z,112
2023-05-15T06:34:52.011Z,106
2023-05-15T06:36:01.362Z,106
2023-05-15T06:37:10.524Z,106
2023-05-15T06:38:19.696Z,106
2023-05-15T06:39:27.954Z,106
2023-05-15T06:40:37.111Z,106
2023-05-15T06:41:46.296Z,112
2023-05-15T06:42:55.442Z,123
2023-05-15T06:44:04.409Z,135
2023-05-15T06:45:13.763Z,112
2023-05-15T06:46:22.944Z,118
2023-05-15T06:47:31.143Z,112
2023-05-15T06:48:40.360Z,112
2023-05-15T06:49:49.473Z,112
2023-05-15T06:50:58.667Z,123
2023-05-15T06:52:07.817Z,129
2023-05-15T06:53:16.974Z,129
2023-05-15T06:54:26.160Z,135
2023-05-15T06:55:35.318Z,140
2023-05-15T06:56:44.515Z,146
2023-05-15T06:57:53.695Z,146
2023-05-15T06:59:02.883Z,146
2023-05-15T07:00:12.075Z,140
2023-05-15T07:01:21.185Z,140
2023-05-15T07:02:29.409Z,135
2023-05-15T07:03:38.390Z,129
2023-05-15T07:04:46.768Z,129
2023-05-15T07:05:54.939Z,129
2023-05-15T07:07:02.963Z,129
2023-05-15T07:08:12.155Z,129
2023-05-15T07:09:21.478Z,140
2023-05-15T07:10:30.703Z,157
2023-05-15T07:11:39.753Z,163
2023-05-15T07:13:58.008Z,151
2023-05-15T07:15:07.257Z,157
2023-05-15T07:16:16.436Z,180
2023-05-15T07:17:25.621Z,191
2023-05-15T07:18:34.808Z,174
2023-05-15T07:19:43.910Z,163
2023-05-15T07:20:53.174Z,185
2023-05-15T07:22:01.343Z,196
2023-05-15T07:23:10.551Z,196
2023-05-15T07:24:19.657Z,196
2023-05-15T07:25:28.743Z,196
2023-05-15T07:26:37.911Z,208
2023-05-15T07:27:47.195Z,202
2023-05-15T07:28:56.379Z,196
2023-05-15T07:30:05.512Z,202
2023-05-15T07:31:14.700Z,208
2023-05-15T07:32:23.917Z,213
2023-05-15T07:33:33.021Z,202
2023-05-15T07:34:42.198Z,180
2023-05-15T07:35:51.375Z,163
2023-05-15T07:36:59.570Z,163
2023-05-15T07:38:08.742Z,180
2023-05-15T07:39:18.006Z,180
2023-05-15T07:40:27.078Z,163
2023-05-15T07:41:36.276Z,123
2023-05-15T07:42:45.497Z,129
2023-05-15T07:43:54.583Z,129
2023-05-15T07:45:03.781Z,106
2023-05-15T07:46:12.981Z,90
2023-05-15T07:47:22.082Z,84
2023-05-15T07:48:31.201Z,78
2023-05-15T07:49:40.498Z,73
2023-05-15T07:50:49.674Z,73
2023-05-15T07:51:57.906Z,78
2023-05-15T07:53:07.050Z,90
2023-05-15T07:54:16.190Z,95
2023-05-15T07:55:25.248Z,101
2023-05-15T07:56:34.559Z,101
2023-05-15T07:57:43.709Z,101
2023-05-15T07:58:52.943Z,112
2023-05-15T08:00:02.123Z,112
2023-05-15T08:01:11.347Z,112
2023-05-15T08:02:20.376Z,106
2023-05-15T08:03:28.638Z,118
2023-05-15T08:04:36.764Z,123
2023-05-15T08:05:45.928Z,129
2023-05-15T08:06:55.075Z,140
2023-05-15T08:08:04.293Z,157
2023-05-15T08:09:13.490Z,163
2023-05-15T08:10:22.584Z,163
2023-05-15T08:11:31.754Z,157
2023-05-15T08:12:41.012Z,151
2023-05-15T08:13:50.095Z,151
2023-05-15T08:14:59.287Z,151
2023-05-15T08:16:08.508Z,157
2023-05-15T08:17:17.589Z,174
2023-05-15T08:18:26.742Z,168
2023-05-15T08:19:35.072Z,157
2023-05-15T08:20:44.164Z,146
2023-05-15T08:21:53.362Z,163
2023-05-15T08:23:02.457Z,191
2023-05-15T08:24:11.623Z,236
2023-05-15T08:25:20.826Z,275
2023-05-15T08:26:30.021Z,264
2023-05-15T08:27:39.141Z,258
2023-05-15T08:28:48.289Z,247
2023-05-15T08:29:57.531Z,247
2023-05-15T08:31:06.675Z,247
2023-05-15T08:32:15.861Z,236
2023-05-15T08:33:24.984Z,247
2023-05-15T08:34:33.225Z,258
2023-05-15T08:36:51.522Z,275
2023-05-15T08:38:00.868Z,258
2023-05-15T08:39:09.995Z,247
2023-05-15T08:40:19.075Z,236
2023-05-15T08:41:28.237Z,258
2023-05-15T08:42:37.401Z,258
2023-05-15T08:43:46.545Z,241
2023-05-15T08:44:55.892Z,258
2023-05-15T08:46:03.980Z,264
2023-05-15T08:47:12.138Z,247
2023-05-15T08:48:20.356Z,247
2023-05-15T08:49:29.591Z,247
2023-05-15T08:50:38.680Z,247
2023-05-15T08:51:47.934Z,230
2023-05-15T08:52:57.094Z,219
2023-05-15T08:54:06.170Z,219
2023-05-15T08:55:15.400Z,219
2023-05-15T08:56:24.661Z,213
2023-05-15T08:57:33.692Z,208
2023-05-15T08:58:42.919Z,202
2023-05-15T09:01:01.385Z,213
2023-05-15T09:02:10.514Z,213
2023-05-15T09:03:18.754Z,208
2023-05-15T09:04:27.779Z,202
2023-05-15T09:05:37.022Z,208
2023-05-15T09:06:46.227Z,213
2023-05-15T09:07:55.370Z,213
2023-05-15T09:09:04.531Z,219
2023-05-15T09:10:13.744Z,219
2023-05-15T09:11:22.958Z,219
2023-05-15T09:12:32.132Z,241
2023-05-15T09:13:41.154Z,253
2023-05-15T09:14:50.447Z,253
2023-05-15T09:15:59.638Z,253
2023-05-15T09:17:08.756Z,258
2023-05-15T09:18:17.957Z,253
2023-05-15T09:19:26.160Z,258
2023-05-15T09:20:35.342Z,258
2023-05-15T09:21:44.459Z,258
2023-05-15T09:22:53.565Z,258
2023-05-15T09:24:02.862Z,258
2023-05-15T09:25:11.905Z,264
2023-05-15T09:26:21.105Z,281
2023-05-15T09:28:39.509Z,292
2023-05-15T09:29:48.644Z,298
2023-05-15T09:30:57.886Z,303
2023-05-15T09:32:07.023Z,320
2023-05-15T09:33:16.199Z,309
2023-05-15T09:34:24.293Z,286
2023-05-15T09:35:33.580Z,281
2023-05-15T09:36:42.745Z,275
2023-05-15T09:37:51.927Z,247
2023-05-15T09:39:01.115Z,241
2023-05-15T09:40:09.323Z,253
2023-05-15T09:41:17.516Z,253
2023-05-15T09:42:26.501Z,258
2023-05-15T09:43:35.807Z,258
2023-05-15T09:44:44.982Z,247
2023-05-15T09:45:54.182Z,230
2023-05-15T09:47:03.237Z,219
2023-05-15T09:48:12.445Z,225
2023-05-15T09:49:21.723Z,241
2023-05-15T09:50:30.868Z,264
2023-05-15T09:51:40.035Z,286
2023-05-15T09:52:49.119Z,326
2023-05-15T09:53:58.224Z,433
2023-05-15T09:55:07.575Z,393
2023-05-15T09:56:16.571Z,382
2023-05-15T09:57:24.921Z,416
2023-05-15T09:58:33.940Z,315
2023-05-15T09:59:43.223Z,393
2023-05-15T10:00:52.416Z,450
2023-05-15T10:02:01.623Z,421
2023-05-15T10:03:09.665Z,450
2023-05-15T10:04:17.972Z,438
2023-05-15T10:05:26.994Z,365
2023-05-15T10:06:36.320Z,455
2023-05-15T10:07:45.353Z,365
2023-05-15T10:08:54.577Z,466
2023-05-15T10:10:03.724Z,376
2023-05-15T10:11:12.943Z,461
2023-05-15T10:12:22.025Z,320
2023-05-15T10:13:31.255Z,326
2023-05-15T10:14:40.375Z,348
2023-05-15T10:15:49.569Z,360
2023-05-15T10:16:58.731Z,376
2023-05-15T10:19:17.102Z,450
2023-05-15T10:20:25.267Z,405
2023-05-15T10:21:34.557Z,416
2023-05-15T10:22:43.596Z,427
2023-05-15T10:23:52.792Z,427
2023-05-15T10:25:01.947Z,365
2023-05-15T10:26:11.152Z,478
2023-05-15T10:27:19.366Z,399
2023-05-15T10:28:27.495Z,489
2023-05-15T10:29:35.764Z,500
2023-05-15T10:30:44.906Z,478
2023-05-15T10:31:54.040Z,472
2023-05-15T10:33:03.235Z,483
2023-05-15T10:34:12.384Z,421
2023-05-15T10:35:21.567Z,376
2023-05-15T10:36:30.788Z,382
2023-05-15T10:37:39.933Z,489
2023-05-15T10:38:48.175Z,466
2023-05-15T10:39:57.260Z,433
2023-05-15T10:41:06.442Z,416
2023-05-15T10:42:15.645Z,416
2023-05-15T10:43:24.785Z,410
2023-05-15T10:44:33.958Z,433
2023-05-15T10:45:43.151Z,399
2023-05-15T10:46:52.299Z,427
2023-05-15T10:48:01.493Z,421
2023-05-15T10:49:10.648Z,410
2023-05-15T10:50:19.835Z,410
2023-05-15T10:51:29.013Z,416
2023-05-15T10:52:38.236Z,405
2023-05-15T10:53:46.370Z,405
2023-05-15T10:54:55.528Z,393
2023-05-15T10:56:04.702Z,405
2023-05-15T10:57:13.867Z,393
2023-05-15T10:58:23.048Z,393
2023-05-15T10:59:32.286Z,393
2023-05-15T11:00:41.470Z,399
2023-05-15T11:01:50.559Z,405
2023-05-15T11:02:59.872Z,410
2023-05-15T11:05:18.225Z,405
2023-05-15T11:06:27.324Z,405
2023-05-15T11:07:36.414Z,405
2023-05-15T11:08:44.605Z,416
2023-05-15T11:09:53.961Z,421
2023-05-15T11:11:02.155Z,433
2023-05-15T11:12:11.241Z,438
2023-05-15T11:13:19.533Z,421
2023-05-15T11:14:28.508Z,455
2023-05-15T11:15:37.832Z,421
2023-05-15T11:16:46.850Z,427
2023-05-15T11:17:56.178Z,388
2023-05-15T11:19:05.258Z,410
2023-05-15T11:20:14.519Z,421
2023-05-15T11:21:23.693Z,416
2023-05-15T11:22:32.924Z,427
2023-05-15T11:23:42.120Z,410
2023-05-15T11:24:51.223Z,410
2023-05-15T11:26:00.338Z,410
2023-05-15T11:27:09.443Z,416
2023-05-15T11:28:17.750Z,416
2023-05-15T11:29:26.830Z,421
2023-05-15T11:30:36.180Z,433
2023-05-15T11:31:45.147Z,427
2023-05-15T11:32:54.359Z,427
2023-05-15T11:34:03.583Z,421
2023-05-15T11:35:12.686Z,421
2023-05-15T11:36:21.933Z,421
2023-05-15T11:37:31.078Z,433
2023-05-15T11:38:40.415Z,421
2023-05-15T11:39:49.433Z,416
2023-05-15T11:40:58.708Z,416
2023-05-15T11:42:07.771Z,421
2023-05-15T11:43:15.857Z,421
2023-05-15T11:44:25.208Z,427
2023-05-15T11:45:34.320Z,421
2023-05-15T11:46:43.398Z,421
2023-05-15T11:47:52.544Z,433
2023-05-15T11:49:01.700Z,438
2023-05-15T11:50:10.886Z,433
2023-05-15T11:51:20.137Z,438
2023-05-15T11:52:29.227Z,438
2023-05-15T11:53:38.464Z,444
2023-05-15T11:54:47.573Z,455
2023-05-15T11:55:56.750Z,466
2023-05-15T11:57:05.976Z,478
2023-05-15T11:58:14.167Z,483
2023-05-15T11:59:23.310Z,483
2023-05-15T12:00:31.506Z,483
2023-05-15T12:01:39.894Z,489
2023-05-15T12:02:48.832Z,489
2023-05-15T12:03:58.012Z,489
2023-05-15T12:05:07.184Z,472
2023-05-15T12:06:16.362Z,376
2023-05-15T12:07:25.525Z,433
2023-05-15T12:08:34.735Z,371
2023-05-15T12:09:43.911Z,523
2023-05-15T12:10:53.041Z,534
2023-05-15T12:12:02.230Z,528
2023-05-15T12:14:20.684Z,545
2023-05-15T12:15:29.740Z,568
2023-05-15T12:16:38.097Z,590
2023-05-15T12:17:47.095Z,421
2023-05-15T12:20:05.445Z,517
2023-05-15T12:21:13.655Z,579
2023-05-15T12:22:21.848Z,528
2023-05-15T12:23:31.012Z,545
2023-05-15T12:24:40.168Z,556
2023-05-15T12:25:49.385Z,573
2023-05-15T12:26:58.528Z,556
2023-05-15T12:28:07.683Z,590
2023-05-15T12:29:16.872Z,641
2023-05-15T12:30:26.061Z,652
2023-05-15T12:31:35.320Z,669
2023-05-15T12:32:43.492Z,658
2023-05-15T12:33:51.597Z,652
2023-05-15T12:35:00.769Z,675
2023-05-15T12:36:09.978Z,736
2023-05-15T12:37:19.124Z,849
2023-05-15T12:38:28.289Z,894
2023-05-15T12:39:37.585Z,888
2023-05-15T12:40:46.659Z,1040
2023-05-15T12:41:55.869Z,1305
2023-05-15T12:43:04.970Z,1653
2023-05-15T12:44:14.143Z,1676
2023-05-15T12:45:23.310Z,1271
2023-05-15T12:46:32.537Z,1125
2023-05-15T12:47:41.682Z,1006
2023-05-15T12:48:49.841Z,956
2023-05-15T12:49:59.033Z,888
2023-05-15T12:51:08.305Z,860
2023-05-15T12:52:17.365Z,900
2023-05-15T12:53:26.661Z,967
2023-05-15T12:54:35.834Z,1012
2023-05-15T12:55:43.955Z,973
2023-05-15T12:56:53.169Z,933
2023-05-15T12:58:01.279Z,967
2023-05-15T12:59:10.446Z,984
2023-05-15T13:00:19.618Z,990
2023-05-15T13:01:28.781Z,1035
2023-05-15T13:02:37.952Z,1091
2023-05-15T13:03:47.152Z,1051
2023-05-15T13:04:56.289Z,984
2023-05-15T13:06:05.545Z,1091
2023-05-15T13:07:14.643Z,1074
2023-05-15T13:09:33.132Z,1057
2023-05-15T13:11:51.478Z,1040
2023-05-15T13:12:59.673Z,1096
2023-05-15T13:14:07.823Z,1023
2023-05-15T13:15:16.914Z,517
2023-05-15T13:16:26.106Z,607
2023-05-15T13:17:35.260Z,950
2023-05-15T13:18:44.426Z,1029
2023-05-15T13:19:53.583Z,1113
2023-05-15T13:21:02.918Z,652
2023-05-15T13:22:11.927Z,455
2023-05-15T13:23:21.162Z,928
2023-05-15T13:24:29.345Z,1395
2023-05-15T13:25:37.536Z,1068
2023-05-15T13:26:46.685Z,978
2023-05-15T13:27:55.893Z,376
2023-05-15T13:29:05.019Z,354
2023-05-15T13:30:14.179Z,371
2023-05-15T13:31:23.469Z,455
2023-05-15T13:32:32.599Z,894
2023-05-15T13:33:41.697Z,770
2023-05-15T13:34:50.870Z,416
2023-05-15T13:36:00.102Z,410
2023-05-15T13:37:09.217Z,433
2023-05-15T13:38:18.495Z,956
2023-05-15T13:39:27.557Z,1271
2023-05-15T13:40:35.741Z,1327
2023-05-15T13:41:44.926Z,1378
2023-05-15T13:42:54.177Z,1355
2023-05-15T13:44:03.348Z,1299
2023-05-15T13:45:12.516Z,461
2023-05-15T13:46:21.756Z,438
2023-05-15T13:47:29.970Z,365
2023-05-15T13:48:38.191Z,354
2023-05-15T13:49:46.194Z,354
2023-05-15T13:50:55.407Z,984
2023-05-15T13:52:04.612Z,382
2023-05-15T13:53:13.712Z,354
2023-05-15T13:54:22.899Z,382
2023-05-15T13:56:41.283Z,866
2023-05-15T13:57:50.424Z,928
2023-05-15T13:58:59.570Z,916
2023-05-15T14:00:08.742Z,945
2023-05-15T14:01:17.926Z,990
2023-05-15T14:02:27.093Z,1215
2023-05-15T14:03:36.282Z,1080
2023-05-15T14:04:44.450Z,860
2023-05-15T14:05:53.696Z,427
2023-05-15T14:07:02.807Z,1068
2023-05-15T14:08:11.969Z,1080
2023-05-15T14:09:21.132Z,607
2023-05-15T14:10:30.335Z,1198
2023-05-15T14:11:39.477Z,360
2023-05-15T14:12:47.701Z,433
2023-05-15T14:13:55.864Z,939
2023-05-15T14:15:05.085Z,905
2023-05-15T14:16:14.220Z,928
2023-05-15T14:17:23.388Z,1091
2023-05-15T14:18:32.598Z,1265
2023-05-15T14:19:41.724Z,1074
2023-05-15T14:20:50.907Z,1147
2023-05-15T14:22:00.087Z,1372
2023-05-15T14:23:09.262Z,1468
2023-05-15T14:24:18.433Z,1147
2023-05-15T14:25:27.595Z,1012
2023-05-15T14:26:36.802Z,950
2023-05-15T14:27:45.961Z,877
2023-05-15T14:28:54.132Z,945
2023-05-15T14:30:02.342Z,1063
2023-05-15T14:31:11.498Z,1001
2023-05-15T14:32:20.669Z,978
2023-05-15T14:33:29.856Z,1063
2023-05-15T14:34:39.022Z,1333
2023-05-15T14:35:48.188Z,1063
2023-05-15T14:36:57.422Z,703
2023-05-15T14:38:06.550Z,618
2023-05-15T14:39:14.748Z,624
2023-05-15T14:40:22.923Z,646
2023-05-15T14:41:32.120Z,810
2023-05-15T14:42:41.271Z,961
2023-05-15T14:43:50.447Z,916
2023-05-15T14:44:59.615Z,1063
2023-05-15T14:46:08.791Z,1023
2023-05-15T14:48:27.177Z,922
2023-05-15T14:49:36.319Z,956
2023-05-15T14:50:45.497Z,1063
2023-05-15T14:51:54.655Z,1209
2023-05-15T14:53:03.871Z,1417
2023-05-15T14:54:13.009Z,1591
2023-05-15T14:55:21.208Z,1670
2023-05-15T14:56:30.432Z,1546
2023-05-15T14:57:39.556Z,1243
2023-05-15T14:58:48.717Z,1293
2023-05-15T14:59:57.888Z,1215
2023-05-15T15:01:07.055Z,1063
2023-05-15T15:02:16.222Z,1265
2023-05-15T15:03:24.452Z,1676
2023-05-15T15:04:32.624Z,2041
2023-05-15T15:05:40.807Z,2081
2023-05-15T15:06:49.978Z,2002
2023-05-15T15:07:59.151Z,2081
2023-05-15T15:09:08.332Z,2216
2023-05-15T15:10:17.513Z,1968
2023-05-15T15:11:26.685Z,2306
2023-05-15T15:13:45.009Z,2002
2023-05-15T15:14:54.193Z,2109
2023-05-15T15:16:03.362Z,1946
2023-05-15T15:17:12.544Z,1906
2023-05-15T15:18:21.717Z,1878
2023-05-15T15:19:30.884Z,1968
2023-05-15T15:20:39.078Z,1642
2023-05-15T15:22:57.410Z,1715
2023-05-15T15:24:05.626Z,1620
2023-05-15T15:25:13.807Z,1743
2023-05-15T15:26:23.000Z,1580
2023-05-15T15:27:32.143Z,1771
2023-05-15T15:28:41.330Z,1721
2023-05-15T15:29:50.504Z,1698
2023-05-15T15:30:59.666Z,1631
2023-05-15T15:32:08.839Z,1299
2023-05-15T15:33:18.022Z,1282
2023-05-15T15:34:27.186Z,1501
2023-05-15T15:35:35.388Z,1676
2023-05-15T15:36:43.702Z,1479
2023-05-15T15:37:52.740Z,1456
2023-05-15T15:39:02.030Z,1558
2023-05-15T15:40:11.111Z,1569
2023-05-15T15:41:20.384Z,1895
2023-05-15T15:42:29.439Z,1743
2023-05-15T15:43:38.640Z,1732
2023-05-15T15:44:47.867Z,1822
2023-05-15T15:45:57.041Z,1906
2023-05-15T15:47:06.190Z,1704
2023-05-15T15:48:15.371Z,1710
2023-05-15T15:49:24.486Z,1704
2023-05-15T15:50:33.725Z,1608
2023-05-15T15:51:41.846Z,2025
2023-05-15T15:52:51.080Z,2126
2023-05-15T15:54:00.212Z,1963
2023-05-15T15:55:09.369Z,2081
2023-05-15T15:56:18.593Z,1946
2023-05-15T15:57:27.796Z,2058
2023-05-15T15:58:36.963Z,2160
2023-05-15T16:00:55.231Z,1783
2023-05-15T16:02:04.405Z,1850
2023-05-15T16:03:13.574Z,2008
2023-05-15T16:04:22.759Z,1850
2023-05-15T16:05:31.032Z,1383
2023-05-15T16:06:39.221Z,1608
2023-05-15T16:07:48.306Z,663
2023-05-15T16:08:57.514Z,399
2023-05-15T16:10:06.660Z,343
2023-05-15T16:11:15.827Z,331
2023-05-15T16:12:25.013Z,326
2023-05-15T16:13:34.222Z,326
2023-05-15T16:14:43.358Z,326
2023-05-15T16:17:02.568Z,326
2023-05-15T16:18:10.878Z,326
2023-05-15T16:19:20.051Z,315
2023-05-15T16:20:29.220Z,309
2023-05-15T16:21:38.432Z,309
2023-05-15T16:22:46.576Z,298
2023-05-15T16:23:55.755Z,298
2023-05-15T16:25:04.908Z,298
2023-05-15T16:26:14.098Z,309
2023-05-15T16:27:23.269Z,590
2023-05-15T16:28:32.477Z,528
2023-05-15T16:29:40.639Z,320
2023-05-15T16:30:48.829Z,315
2023-05-15T16:31:57.025Z,281
2023-05-15T16:33:06.183Z,337
2023-05-15T16:34:15.357Z,421
2023-05-15T16:35:24.531Z,466
2023-05-15T16:36:33.698Z,393
2023-05-15T16:37:42.878Z,292